Latest Weather Observations for Kyabram

IDV60801

Issued at 10:31 pm EST Friday 4 September 2015 (issued every 30 minutes, with the page automatically refreshed every 10 minutes)

About weather observations | Map of weather stations | Latest weather observations for VIC | Other Formats
Station Details ID: 080091 Name: KYABRAM Lat: -36.34 Lon: 145.06 Height: 105.0 m
Data from the previous 72 hours. | See also: Recent months at Kyabram
Date/Time
EST
Temp
°C
App
Temp
°C
Dew
Point
Rel
Hum
%
Delta-T
°C
Wind Press
QNH
hPa
Press
MSL
hPa
Rain
since 9 am
mm
Dir
 
Spd
km/h
Gust
km/h
Spd
kts
Gust
kts
04/10:30pm 5.8 2.7 3.8 87 0.8 SW 9 15 5 8 - - 0.0
04/10:00pm 5.9 2.8 3.6 85 1.0 WSW 9 13 5 7 - - 0.0
04/09:30pm 6.2 3.1 3.5 83 1.1 WSW 9 15 5 8 - - 0.0
04/09:00pm 6.1 3.4 3.6 84 1.1 WSW 7 11 4 6 - - 0.0
04/08:30pm 6.5 3.4 3.7 82 1.2 SW 9 13 5 7 - - 0.0
04/08:00pm 7.1 4.4 3.9 80 1.4 SW 7 11 4 6 - - 0.0
04/07:30pm 7.5 4.5 3.9 78 1.6 SSW 9 13 5 7 - - 0.0
04/07:00pm 8.3 5.3 3.9 74 1.9 SW 9 13 5 7 - - 0.0
04/06:30pm 9.1 6.1 4.1 71 2.2 S 9 13 5 7 - - 0.0
04/06:00pm 10.1 7.1 4.3 67 2.6 SSW 9 13 5 7 - - 0.0
04/05:30pm 11.9 8.6 4.4 60 3.4 SSW 11 15 6 8 - - 0.0
04/05:00pm 13.2 9.4 4.1 54 4.2 SSW 13 24 7 13 - - 0.0
04/04:30pm 14.1 10.3 3.8 50 4.7 S 13 19 7 10 - - 0.0
04/04:00pm 14.5 10.4 4.2 50 4.8 SSW 15 26 8 14 - - 0.0
04/03:30pm 14.6 10.4 4.0 49 4.9 SSW 15 20 8 11 - - 0.0
04/03:00pm 15.0 11.1 5.2 52 4.6 SSW 15 28 8 15 - - 0.0
04/02:30pm 14.6 10.4 4.0 49 4.9 SSW 15 26 8 14 - - 0.0
04/02:00pm 14.5 10.4 4.2 50 4.8 SSW 15 22 8 12 - - 0.0
04/01:30pm 14.8 10.9 5.3 53 4.5 SSW 15 22 8 12 - - 0.0
04/01:00pm 13.6 9.3 3.4 50 4.6 SSW 15 22 8 12 - - 0.0
04/12:30pm 13.7 9.1 3.8 51 4.5 SSW 17 24 9 13 - - 0.0
04/12:00pm 13.3 9.5 3.7 52 4.4 S 13 22 7 12 - - 0.0
04/11:30am 12.5 8.0 4.0 56 3.9 SSW 17 24 9 13 - - 0.0
04/11:00am 12.1 8.0 4.1 58 3.6 S 15 22 8 12 - - 0.0
04/10:30am 11.5 6.6 4.3 61 3.3 SSW 19 28 10 15 - - 0.0
04/10:00am 11.0 6.5 4.2 63 3.1 S 17 28 9 15 - - 0.0
04/09:30am 10.1 5.1 3.8 65 2.8 SSW 19 32 10 17 - - 0.0
04/09:00am 8.8 5.4 5.7 81 1.4 SSW 13 20 7 11 - - 0.2
04/08:30am 7.2 4.4 5.0 86 1.0 WSW 9 15 5 8 - - 0.2
04/08:00am 5.7 2.8 4.7 93 0.4 WSW 9 13 5 7 - - 0.2
04/07:30am 4.0 0.9 3.6 97 0.2 WSW 9 17 5 9 - - 0.2
04/07:00am 2.9 0.0 2.8 99 0.0 WSW 7 13 4 7 - - 0.2
04/06:30am 3.0 0.2 2.9 99 0.0 WSW 7 11 4 6 - - 0.2
04/06:00am 3.2 0.0 3.1 99 0.0 WSW 9 13 5 7 - - 0.2
04/05:30am 3.5 0.4 3.4 99 0.0 WSW 9 13 5 7 - - 0.2
04/05:00am 3.5 0.7 3.4 99 0.0 WSW 7 13 4 7 - - 0.2
04/04:30am 3.7 1.0 3.6 99 0.0 WSW 7 9 4 5 - - 0.2
04/04:00am 3.7 1.2 3.6 99 0.0 W 6 9 3 5 - - 0.2
04/03:30am 3.5 0.7 3.1 97 0.2 W 7 9 4 5 - - 0.2
04/03:00am 4.4 1.9 3.8 96 0.3 SW 6 11 3 6 - - 0.2
04/02:30am 5.2 1.9 4.5 95 0.3 SW 11 17 6 9 - - 0.2
04/02:00am 5.6 2.3 4.7 94 0.4 SW 11 17 6 9 - - 0.2
04/01:30am 5.9 2.7 5.0 94 0.4 SW 11 15 6 8 - - 0.2
04/01:00am 6.5 3.3 5.1 91 0.6 SW 11 17 6 9 - - 0.2
04/12:30am 7.2 3.8 5.7 90 0.7 SW 13 20 7 11 - - 0.2
04/12:00am 7.2 3.3 5.5 89 0.8 SW 15 22 8 12 - - 0.2
 
Date/Time
EST
Temp
°C
App
Temp
°C
Dew
Point
Rel
Hum
%
Delta-T
°C
Wind Press
QNH
hPa
Press
MSL
hPa
Rain
since 9 am
mm
Dir
 
Spd
km/h
Gust
km/h
Spd
kts
Gust
kts
03/11:30pm 7.4 3.9 5.4 87 0.9 SW 13 20 7 11 - - 0.2
03/11:00pm 7.8 3.9 5.4 85 1.1 SW 15 22 8 12 - - 0.2
03/10:30pm 8.3 4.0 5.4 82 1.3 SW 17 24 9 13 - - 0.2
03/10:00pm 8.4 4.5 5.5 82 1.3 SW 15 20 8 11 - - 0.2
03/09:30pm 8.5 5.1 6.0 84 1.1 SSW 13 20 7 11 - - 0.2
03/09:00pm 9.1 5.4 6.4 83 1.3 SW 15 20 8 11 - - 0.2
03/08:30pm 9.2 6.3 6.5 83 1.3 SSW 11 19 6 10 - - 0.2
03/08:00pm 9.6 5.5 6.1 79 1.6 SW 17 20 9 11 - - 0.2
03/07:30pm 10.6 5.9 6.0 73 2.1 SW 20 30 11 16 - - 0.2
03/07:00pm 11.2 6.8 6.5 73 2.2 SW 19 32 10 17 - - 0.2
03/06:30pm 11.5 7.3 7.4 76 2.0 SSW 19 24 10 13 - - 0.2
03/06:00pm 12.3 7.6 7.6 73 2.3 SSW 22 35 12 19 - - 0.2
03/05:30pm 13.4 9.1 7.8 69 2.8 SSW 20 30 11 16 - - 0.2
03/05:00pm 14.4 10.1 7.9 65 3.2 SSW 20 32 11 17 - - 0.2
03/04:30pm 15.2 10.6 8.0 62 3.6 SSW 22 37 12 20 - - 0.2
03/04:00pm 15.7 10.7 8.0 60 3.9 SSW 24 41 13 22 - - 0.2
03/03:30pm 16.0 11.0 8.0 59 4.0 SSW 24 37 13 20 - - 0.2
03/03:00pm 16.4 10.7 8.4 59 4.1 SSW 28 44 15 24 - - 0.2
03/02:30pm 17.1 13.2 9.3 60 4.1 SSW 20 37 11 20 - - 0.2
03/02:00pm 16.6 11.9 9.1 61 3.9 S 24 39 13 21 - - 0.2
03/01:30pm 16.6 12.2 8.8 60 4.0 S 22 39 12 21 - - 0.2
03/01:00pm 17.2 12.1 9.1 59 4.2 SSW 26 39 14 21 - - 0.2
03/12:30pm 16.8 11.2 8.8 59 4.1 SSW 28 41 15 22 - - 0.0
03/12:00pm 16.6 12.2 9.1 61 3.9 SSW 22 35 12 19 - - 0.0
03/11:30am 16.3 12.0 9.5 64 3.6 SSW 22 35 12 19 - - 0.0
03/11:00am 15.5 11.4 8.7 64 3.5 SSW 20 30 11 16 - - 0.0
03/10:30am 14.6 9.9 7.6 63 3.5 SSW 22 41 12 22 - - 0.0
03/10:00am 13.3 9.3 8.2 71 2.5 SSW 19 28 10 15 - - 0.0
03/09:30am 13.3 9.6 9.4 77 2.0 SSW 19 28 10 15 - - 0.0
03/09:00am 11.8 9.0 10.0 89 0.9 SW 15 20 8 11 - - 12.2
03/08:30am 11.1 8.3 9.9 92 0.6 SW 15 20 8 11 - - 12.2
03/08:00am 10.8 8.3 9.6 92 0.6 SW 13 20 7 11 - - 12.2
03/07:30am 10.5 8.7 9.6 94 0.5 SW 9 17 5 9 - - 12.2
03/07:00am 10.4 8.6 9.6 95 0.4 SW 9 15 5 8 - - 12.2
03/06:30am 10.4 8.4 10.1 98 0.2 SSW 11 20 6 11 - - 12.2
03/06:00am 10.4 9.1 10.1 98 0.2 S 7 15 4 8 - - 12.2
03/05:30am 10.4 9.1 9.9 97 0.3 S 7 11 4 6 - - 12.2
03/05:00am 10.3 9.0 10.1 99 0.1 S 7 13 4 7 - - 12.2
03/04:30am 10.3 9.0 10.1 99 0.1 S 7 9 4 5 - - 12.2
03/04:00am 10.4 9.2 10.2 99 0.1 S 7 11 4 6 - - 12.2
03/03:30am 10.5 8.9 10.3 99 0.1 SSE 9 15 5 8 - - 12.2
03/03:00am 10.4 9.2 10.2 99 0.1 SSE 7 11 4 6 - - 12.2
03/02:30am 10.3 8.7 10.1 99 0.1 SE 9 13 5 7 - - 12.2
03/02:00am 10.4 8.4 10.2 99 0.1 SSE 11 15 6 8 - - 12.2
03/01:30am 10.5 8.5 10.3 99 0.1 SE 11 17 6 9 - - 12.2
03/01:00am 10.6 9.4 10.4 99 0.1 SE 7 13 4 7 - - 12.2
03/12:30am 10.8 8.9 10.6 99 0.1 SE 11 15 6 8 - - 12.2
03/12:00am 10.8 8.9 10.6 99 0.1 SE 11 17 6 9 - - 12.2
 
Date/Time
EST
Temp
°C
App
Temp
°C
Dew
Point
Rel
Hum
%
Delta-T
°C
Wind Press
QNH
hPa
Press
MSL
hPa
Rain
since 9 am
mm
Dir
 
Spd
km/h
Gust
km/h
Spd
kts
Gust
kts
02/11:30pm 10.8 8.9 10.6 99 0.1 SE 11 15 6 8 - - 12.2
02/11:00pm 10.9 9.1 10.7 99 0.1 SE 11 19 6 10 - - 12.0
02/10:30pm 11.0 8.5 11.0 100 0.0 ESE 15 24 8 13 - - 12.0
02/10:00pm 11.1 8.6 11.1 100 0.0 SE 15 22 8 12 - - 12.0
02/09:30pm 11.0 8.5 11.0 100 0.0 SE 15 22 8 12 - - 12.0
02/09:00pm 11.2 8.7 11.2 100 0.0 ESE 15 22 8 12 - - 12.0
02/08:30pm 11.3 8.1 11.3 100 0.0 ESE 19 28 10 15 - - 12.0
02/08:00pm 11.0 8.5 11.0 100 0.0 E 15 24 8 13 - - 11.6
02/07:30pm 11.0 9.2 11.0 100 0.0 ESE 11 17 6 9 - - 10.8
02/07:00pm 11.6 10.4 11.6 100 0.0 E 9 15 5 8 - - 9.6
02/06:30pm 11.6 11.7 11.4 99 0.1 E 2 9 1 5 - - 7.0
02/06:00pm 11.9 12.4 11.7 99 0.1 CALM 0 0 0 0 - - 4.6
02/05:30pm 12.3 11.0 11.4 94 0.5 ESE 9 13 5 7 - - 1.8
02/05:00pm 12.7 10.9 10.9 89 0.9 SE 11 17 6 9 - - 1.0
02/04:30pm 12.9 11.5 11.0 88 1.0 ESE 9 13 5 7 - - 0.6
02/04:00pm 13.7 12.1 10.1 79 1.9 ESE 9 13 5 7 - - 0.6
02/03:30pm 14.2 12.4 9.6 74 2.4 E 9 15 5 8 - - 0.4
02/03:00pm 14.2 12.1 9.6 74 2.4 E 11 17 6 9 - - 0.4
02/02:30pm 14.8 12.4 8.7 67 3.1 ENE 11 19 6 10 - - 0.0
02/02:00pm 16.0 11.9 7.7 58 4.2 ENE 19 30 10 16 - - 0.0
02/01:30pm 16.9 12.8 7.8 55 4.6 ENE 19 33 10 18 - - 0.0
02/01:00pm 17.3 13.3 8.2 55 4.7 ENE 19 33 10 18 - - 0.0
02/12:30pm 15.9 12.5 7.7 58 4.1 E 15 28 8 15 - - 0.0
02/12:00pm 16.0 12.0 8.2 60 4.0 E 19 30 10 16 - - 0.0
02/11:30am 16.2 12.1 7.7 57 4.3 E 19 32 10 17 - - 0.0
02/11:00am 15.9 10.7 7.4 57 4.2 E 24 35 13 19 - - 0.0
02/10:30am 15.0 11.2 7.5 61 3.7 E 17 32 9 17 - - 0.0
02/10:00am 13.7 9.5 8.1 69 2.8 E 20 32 11 17 - - 0.0
02/09:30am 11.9 7.4 7.0 72 2.4 ESE 20 32 11 17 - - 0.0
02/09:00am 10.2 5.8 6.4 77 1.8 ESE 19 28 10 15 - - 0.0
02/08:30am 9.7 5.4 6.8 82 1.4 E 19 30 10 16 - - 0.0
02/08:00am 7.8 4.1 6.1 89 0.8 E 15 24 8 13 - - 0.0
02/07:30am 7.4 4.5 6.5 94 0.4 E 11 22 6 12 - - 0.0
02/07:00am 6.8 3.8 6.1 95 0.3 E 11 19 6 10 - - 0.0
02/06:30am 6.6 3.6 6.2 97 0.2 ESE 11 19 6 10 - - 0.0
02/06:00am 6.3 3.3 6.0 98 0.1 ESE 11 19 6 10 - - 0.0
02/05:30am 6.3 2.9 6.0 98 0.1 ESE 13 19 7 10 - - 0.0
02/05:00am 6.1 3.1 6.0 99 0.0 ESE 11 17 6 9 - - 0.0
02/04:30am 6.1 3.1 6.0 99 0.0 ESE 11 15 6 8 - - 0.0
02/04:00am 5.6 2.5 5.5 99 0.0 ESE 11 17 6 9 - - 0.0
02/03:30am 5.0 2.1 4.9 99 0.0 ESE 9 17 5 9 - - 0.0
02/03:00am 5.2 2.0 5.1 99 0.0 ESE 11 13 6 7 - - 0.0
02/02:30am 5.3 2.5 5.2 99 0.0 ESE 9 15 5 8 - - 0.0
02/02:00am 5.3 2.1 5.0 98 0.1 ESE 11 15 6 8 - - 0.0
02/01:30am 5.5 2.7 5.2 98 0.1 ESE 9 13 5 7 - - 0.0
02/01:00am 5.8 3.0 5.2 96 0.3 ESE 9 13 5 7 - - 0.0
02/12:30am 6.1 3.3 5.2 94 0.4 ESE 9 15 5 8 - - 0.0
02/12:00am 6.4 3.6 5.0 91 0.6 ESE 9 15 5 8 - - 0.0
 
Date/Time
EST
Temp
°C
App
Temp
°C
Dew
Point
Rel
Hum
%
Delta-T
°C
Wind Press
QNH
hPa
Press
MSL
hPa
Rain
since 9 am
mm
Dir
 
Spd
km/h
Gust
km/h
Spd
kts
Gust
kts
01/11:30pm 6.6 3.8 5.1 90 0.7 ESE 9 13 5 7 - - 0.0
01/11:00pm 6.5 4.0 5.0 90 0.7 ESE 7 11 4 6 - - 0.0

Other Formats:

Comma delimited format used in spreadsheet applications
http://www.bom.gov.au/fwo/IDV60801/IDV60801.95833.axf

JavaScript Object Notation format (JSON) in row-major order
http://www.bom.gov.au/fwo/IDV60801/IDV60801.95833.json